Time;durP1;ratioP1;P1;durP2;ratioP2;P2;SDS_P1;SDS_P2;PMS_P1;PMS_P2;Temp;Humidity;BMP_temperature;BMP_pressure;BME280_temperature;BME280_humidity;BME280_pressure;Samples;Min_cycle;Max_cycle;Signal;HPM_P1;HPM_P2
2023/11/15 00:00:49;;;;;;;3.13;1.35;;;8.00;99.90;;;;;;5002290;28;20092;-83
2023/11/15 00:03:16;;;;;;;2.47;1.80;;;8.00;99.90;;;;;;5012013;28;20033;-82
2023/11/15 00:05:44;;;;;;;3.33;1.98;;;7.90;99.90;;;;;;5000679;28;20046;-82
2023/11/15 00:08:10;;;;;;;2.85;1.52;;;7.90;99.90;;;;;;5008431;28;20026;-83
2023/11/15 00:10:35;;;;;;;2.75;1.65;;;7.80;99.90;;;;;;5007029;28;20038;-79
2023/11/15 00:13:01;;;;;;;3.00;1.42;;;7.80;99.90;;;;;;5005158;28;20054;-82
2023/11/15 00:15:26;;;;;;;3.75;1.75;;;7.70;99.90;;;;;;5009650;28;20116;-82
2023/11/15 00:17:52;;;;;;;3.17;1.52;;;7.70;99.90;;;;;;5006346;28;20030;-82
2023/11/15 00:20:18;;;;;;;2.90;1.23;;;7.70;99.90;;;;;;5010573;28;20100;-82
2023/11/15 00:22:44;;;;;;;2.45;1.17;;;7.70;99.90;;;;;;5003994;28;20038;-82
2023/11/15 00:25:09;;;;;;;2.05;1.27;;;7.70;99.90;;;;;;5007838;28;20478;-81
2023/11/15 00:27:35;;;;;;;2.30;1.02;;;7.70;99.80;;;;;;5005674;28;20086;-82
2023/11/15 00:30:02;;;;;;;2.20;1.30;;;7.70;99.60;;;;;;5002917;28;20096;-83
2023/11/15 00:32:27;;;;;;;2.92;1.30;;;7.70;99.50;;;;;;5007745;28;20026;-82
2023/11/15 00:34:53;;;;;;;1.65;0.90;;;7.60;99.40;;;;;;5011095;28;20114;-81
2023/11/15 00:37:18;;;;;;;2.35;1.35;;;7.60;99.20;;;;;;5005459;28;20032;-82
2023/11/15 00:39:44;;;;;;;1.52;1.05;;;7.50;99.10;;;;;;5008603;28;20026;-82
2023/11/15 00:42:10;;;;;;;2.63;0.85;;;7.40;98.50;;;;;;5005148;28;20641;-81
2023/11/15 00:44:36;;;;;;;1.42;1.08;;;7.40;98.60;;;;;;5007980;28;20045;-81
2023/11/15 00:47:03;;;;;;;1.17;0.80;;;7.30;98.50;;;;;;5002547;28;20038;-83
2023/11/15 00:49:29;;;;;;;1.88;1.08;;;7.30;98.50;;;;;;4997495;28;20060;-82
2023/11/15 00:51:56;;;;;;;2.15;0.90;;;7.30;98.40;;;;;;5005832;28;20030;-83
2023/11/15 00:54:22;;;;;;;1.20;0.88;;;7.20;98.50;;;;;;5007927;28;20076;-82
2023/11/15 00:56:48;;;;;;;2.15;0.90;;;7.20;98.50;;;;;;5007279;28;20034;-82
2023/11/15 00:59:13;;;;;;;1.80;0.85;;;7.10;98.60;;;;;;5007586;28;20034;-82
2023/11/15 01:01:39;;;;;;;0.80;0.77;;;7.10;98.60;;;;;;5006372;28;20042;-82
2023/11/15 01:04:05;;;;;;;1.88;0.90;;;7.00;98.60;;;;;;5006442;28;20386;-82
2023/11/15 01:06:31;;;;;;;1.60;1.02;;;6.90;98.50;;;;;;5007495;28;20029;-82
2023/11/15 01:08:58;;;;;;;3.95;1.00;;;6.80;98.60;;;;;;5006101;28;20543;-81
2023/11/15 01:11:26;;;;;;;1.20;0.80;;;6.80;98.60;;;;;;5004745;28;20038;-82
2023/11/15 01:13:53;;;;;;;1.85;0.98;;;6.70;98.50;;;;;;5004399;28;20377;-83
2023/11/15 01:16:22;;;;;;;1.13;0.60;;;6.60;98.50;;;;;;5008388;28;20645;-81
2023/11/15 01:18:48;;;;;;;1.52;0.77;;;6.60;98.50;;;;;;5004808;28;20058;-82
2023/11/15 01:21:13;;;;;;;2.05;1.00;;;6.50;98.50;;;;;;5006034;28;20432;-80
2023/11/15 01:23:39;;;;;;;2.08;1.02;;;6.50;98.70;;;;;;5004242;28;20089;-82
2023/11/15 01:26:05;;;;;;;2.70;1.15;;;6.50;98.80;;;;;;5007506;28;20054;-82
2023/11/15 01:28:31;;;;;;;1.45;0.80;;;6.50;98.90;;;;;;5006308;28;20030;-81
2023/11/15 01:30:56;;;;;;;1.30;0.77;;;6.60;98.90;;;;;;5006989;28;20080;-82
2023/11/15 01:33:22;;;;;;;1.33;0.82;;;6.50;99.00;;;;;;5007803;28;20092;-82
2023/11/15 01:35:47;;;;;;;2.30;1.10;;;6.60;99.00;;;;;;5004399;28;20068;-82
2023/11/15 01:38:15;;;;;;;2.88;1.10;;;6.60;99.10;;;;;;5007296;28;20506;-83
2023/11/15 01:40:42;;;;;;;1.88;0.90;;;6.60;99.10;;;;;;5007648;28;20034;-82
2023/11/15 01:43:09;;;;;;;3.28;1.33;;;6.60;99.20;;;;;;5002761;28;20032;-82
2023/11/15 01:45:35;;;;;;;4.03;1.27;;;6.60;99.20;;;;;;5006747;28;20098;-83
2023/11/15 01:48:01;;;;;;;3.05;1.42;;;6.60;99.20;;;;;;5006447;28;20356;-83
2023/11/15 01:50:27;;;;;;;2.50;1.02;;;6.60;99.10;;;;;;5000303;28;20046;-80
2023/11/15 01:52:53;;;;;;;2.60;1.10;;;6.60;99.10;;;;;;5005000;28;20037;-81
2023/11/15 01:55:20;;;;;;;2.25;1.10;;;6.60;99.10;;;;;;5000604;28;20034;-82
2023/11/15 01:57:46;;;;;;;1.83;0.90;;;6.60;99.00;;;;;;5003891;28;20040;-81
2023/11/15 02:00:14;;;;;;;2.65;1.13;;;6.70;99.00;;;;;;5006359;28;20030;-82
2023/11/15 02:02:41;;;;;;;2.70;1.15;;;6.70;99.00;;;;;;5006290;28;20509;-82
2023/11/15 02:05:09;;;;;;;2.10;1.10;;;6.70;98.80;;;;;;5006516;28;20097;-81
2023/11/15 02:07:36;;;;;;;2.17;1.05;;;6.60;99.00;;;;;;5002815;28;20038;-82
2023/11/15 02:10:04;;;;;;;1.73;0.77;;;6.70;99.00;;;;;;5006176;28;20034;-82
2023/11/15 02:12:29;;;;;;;1.75;0.90;;;6.70;99.10;;;;;;5005076;28;20026;-80
2023/11/15 02:14:55;;;;;;;2.38;1.20;;;6.70;99.00;;;;;;5005928;28;20038;-83
2023/11/15 02:17:22;;;;;;;2.25;1.02;;;6.70;99.00;;;;;;5006590;28;20120;-82
2023/11/15 02:19:48;;;;;;;1.73;0.98;;;6.70;99.00;;;;;;5008268;28;20037;-83
2023/11/15 02:22:14;;;;;;;1.80;0.93;;;6.70;99.00;;;;;;5005680;28;20033;-83
2023/11/15 02:24:40;;;;;;;3.35;1.20;;;6.70;98.90;;;;;;5007775;28;20034;-83
2023/11/15 02:27:05;;;;;;;2.97;1.27;;;6.70;99.00;;;;;;5002306;28;20073;-80
2023/11/15 02:29:31;;;;;;;3.08;1.33;;;6.70;98.90;;;;;;5000783;28;20022;-82
2023/11/15 02:31:56;;;;;;;2.78;1.30;;;6.80;99.10;;;;;;5000746;28;20109;-82
2023/11/15 02:34:22;;;;;;;2.13;1.17;;;6.70;99.10;;;;;;5006010;28;20387;-82
2023/11/15 02:36:47;;;;;;;2.83;1.00;;;6.80;99.00;;;;;;5006477;28;20041;-82
2023/11/15 02:39:15;;;;;;;1.88;1.00;;;6.70;99.10;;;;;;5003972;28;20030;-83
2023/11/15 02:41:41;;;;;;;2.35;1.42;;;6.70;99.10;;;;;;5002983;28;20034;-82
2023/11/15 02:44:06;;;;;;;0.95;0.85;;;6.70;99.10;;;;;;5006385;28;20387;-81
2023/11/15 02:46:32;;;;;;;2.60;1.30;;;6.70;99.10;;;;;;4998588;28;20085;-81
2023/11/15 02:48:58;;;;;;;4.13;1.42;;;6.70;99.10;;;;;;5004363;28;20474;-81
2023/11/15 02:51:23;;;;;;;3.40;1.48;;;6.70;99.20;;;;;;4993845;28;20057;-82
2023/11/15 02:53:48;;;;;;;3.22;1.42;;;6.70;99.20;;;;;;5004141;28;20109;-82
2023/11/15 02:56:14;;;;;;;2.45;1.33;;;6.70;99.20;;;;;;5003887;28;20039;-81
2023/11/15 02:58:40;;;;;;;2.00;1.00;;;6.70;99.20;;;;;;5004318;28;20061;-82
2023/11/15 03:01:06;;;;;;;3.08;1.52;;;6.80;99.20;;;;;;5008203;28;20047;-81
2023/11/15 03:03:34;;;;;;;2.13;1.13;;;6.70;99.20;;;;;;5003227;28;20026;-82
2023/11/15 03:06:00;;;;;;;2.70;0.98;;;6.70;99.00;;;;;;5003602;28;20797;-82
2023/11/15 03:08:25;;;;;;;2.00;1.02;;;6.70;99.10;;;;;;5001134;28;20038;-82
2023/11/15 03:10:51;;;;;;;1.95;0.88;;;6.70;99.10;;;;;;5001769;28;20543;-82
2023/11/15 03:13:17;;;;;;;2.42;1.25;;;6.70;99.00;;;;;;4998274;28;20038;-82
2023/11/15 03:15:42;;;;;;;2.15;1.27;;;6.70;99.10;;;;;;5006197;28;20116;-81
2023/11/15 03:18:09;;;;;;;2.15;0.85;;;6.80;99.20;;;;;;5007847;28;20073;-82
2023/11/15 03:20:35;;;;;;;3.95;1.73;;;6.70;99.10;;;;;;5004375;28;20041;-81
2023/11/15 03:23:00;;;;;;;2.28;1.20;;;6.60;99.00;;;;;;5006387;28;20037;-82
2023/11/15 03:25:26;;;;;;;2.03;1.05;;;6.70;99.00;;;;;;5005133;28;20132;-83
2023/11/15 03:27:52;;;;;;;1.65;1.02;;;6.70;99.00;;;;;;5003560;28;20506;-79
2023/11/15 03:30:18;;;;;;;1.63;1.00;;;6.70;99.00;;;;;;5002585;28;20022;-83
2023/11/15 03:32:44;;;;;;;1.58;0.90;;;6.70;99.10;;;;;;5004300;28;20041;-83
2023/11/15 03:35:10;;;;;;;2.40;1.00;;;6.70;99.00;;;;;;5001999;28;20423;-83
2023/11/15 03:37:36;;;;;;;3.78;0.90;;;6.60;99.10;;;;;;5002123;28;20038;-81
2023/11/15 03:40:02;;;;;;;2.72;1.23;;;6.60;99.10;;;;;;4996222;28;20062;-82
2023/11/15 03:42:28;;;;;;;1.65;0.70;;;6.60;99.20;;;;;;4998590;28;20453;-82
2023/11/15 03:44:54;;;;;;;1.70;0.75;;;6.60;99.20;;;;;;5004103;28;20038;-82
2023/11/15 03:47:19;;;;;;;1.25;0.82;;;6.60;99.30;;;;;;5000118;28;20026;-82
2023/11/15 03:49:45;;;;;;;2.08;1.00;;;6.60;99.30;;;;;;4997014;28;20033;-81
2023/11/15 03:52:11;;;;;;;1.17;0.70;;;6.60;99.20;;;;;;5006736;28;20354;-82
2023/11/15 03:54:36;;;;;;;3.75;0.80;;;6.60;99.30;;;;;;5003846;28;20438;-82
2023/11/15 03:57:04;;;;;;;1.65;0.77;;;6.60;99.20;;;;;;5004028;28;20030;-82
2023/11/15 03:59:29;;;;;;;1.73;0.85;;;6.60;99.20;;;;;;5007364;28;20045;-82
2023/11/15 04:01:55;;;;;;;1.52;0.90;;;6.50;99.10;;;;;;5004074;28;20038;-81
2023/11/15 04:04:20;;;;;;;1.45;0.85;;;6.50;99.10;;;;;;5003338;28;20124;-81
2023/11/15 04:06:45;;;;;;;1.35;0.70;;;6.50;99.10;;;;;;5011200;28;20041;-81
2023/11/15 04:09:11;;;;;;;1.25;0.63;;;6.50;99.20;;;;;;5007280;28;20037;-82
2023/11/15 04:11:39;;;;;;;1.48;0.80;;;6.50;99.10;;;;;;5006163;28;20463;-82
2023/11/15 04:14:04;;;;;;;1.30;0.70;;;6.50;99.10;;;;;;5004991;28;20033;-79
2023/11/15 04:16:30;;;;;;;1.33;0.93;;;6.50;99.10;;;;;;5006357;28;20026;-81
2023/11/15 04:18:56;;;;;;;1.52;0.80;;;6.50;99.20;;;;;;5007207;28;20042;-81
2023/11/15 04:21:22;;;;;;;1.65;0.73;;;6.50;99.20;;;;;;5009128;28;20108;-82
2023/11/15 04:23:47;;;;;;;1.17;0.77;;;6.50;99.20;;;;;;5011268;28;20117;-81
2023/11/15 04:26:13;;;;;;;1.42;0.93;;;6.50;99.20;;;;;;5008681;28;20177;-82
2023/11/15 04:28:39;;;;;;;1.10;0.60;;;6.50;99.30;;;;;;5005529;28;20049;-82
2023/11/15 04:31:04;;;;;;;1.95;0.93;;;6.50;99.30;;;;;;5008016;28;20459;-79
2023/11/15 04:33:30;;;;;;;1.35;0.73;;;6.50;99.20;;;;;;5006626;28;20106;-82
2023/11/15 04:35:55;;;;;;;1.83;0.90;;;6.50;99.30;;;;;;5005774;28;20037;-80
2023/11/15 04:38:21;;;;;;;2.38;1.17;;;6.50;99.20;;;;;;5006559;28;20032;-81
2023/11/15 04:40:46;;;;;;;1.17;0.80;;;6.50;99.30;;;;;;5007071;28;20061;-80
2023/11/15 04:43:12;;;;;;;1.88;1.00;;;6.50;99.30;;;;;;5005785;28;20286;-81
2023/11/15 04:45:37;;;;;;;1.15;0.63;;;6.50;99.40;;;;;;5002899;28;20475;-82
2023/11/15 04:48:04;;;;;;;2.25;1.00;;;6.50;99.40;;;;;;5011643;28;20041;-81
2023/11/15 04:50:30;;;;;;;1.10;0.68;;;6.50;99.30;;;;;;4999320;28;20411;-82
2023/11/15 04:52:56;;;;;;;2.40;1.15;;;6.40;99.30;;;;;;5000917;28;20053;-82
2023/11/15 04:55:21;;;;;;;2.15;0.93;;;6.30;99.40;;;;;;5003402;28;20076;-80
2023/11/15 04:57:47;;;;;;;1.58;0.95;;;6.30;99.40;;;;;;5008514;28;20026;-79
2023/11/15 05:00:13;;;;;;;1.38;0.90;;;6.20;99.50;;;;;;5004082;28;20531;-82
2023/11/15 05:02:38;;;;;;;1.55;0.82;;;6.20;99.60;;;;;;5005388;28;20038;-82
2023/11/15 05:05:05;;;;;;;1.50;0.82;;;6.30;99.60;;;;;;5006672;28;20041;-81
2023/11/15 05:07:36;;;;;;;1.48;1.17;;;6.30;99.70;;;;;;5008684;28;20506;-82
2023/11/15 05:10:04;;;;;;;2.00;1.05;;;6.30;99.70;;;;;;5001802;28;20136;-81
2023/11/15 05:12:30;;;;;;;2.40;1.10;;;6.30;99.70;;;;;;5005258;28;20034;-82
2023/11/15 05:14:56;;;;;;;2.47;1.20;;;6.30;99.60;;;;;;5002103;28;20037;-81
2023/11/15 05:17:21;;;;;;;1.20;0.90;;;6.40;99.70;;;;;;4998152;28;20033;-82
2023/11/15 05:19:47;;;;;;;2.63;1.00;;;6.40;99.70;;;;;;5000244;28;20459;-81
2023/11/15 05:22:12;;;;;;;2.42;0.90;;;6.40;99.60;;;;;;5007486;28;20069;-80
2023/11/15 05:24:39;;;;;;;3.15;1.33;;;6.40;99.60;;;;;;5006633;28;20030;-81
2023/11/15 05:27:04;;;;;;;2.40;1.17;;;6.40;99.60;;;;;;4962876;28;1000998;-75
2023/11/15 05:29:30;;;;;;;1.52;0.90;;;6.40;99.60;;;;;;5008363;28;20030;-74
2023/11/15 05:31:56;;;;;;;2.58;1.05;;;6.40;99.70;;;;;;5006674;28;20075;-74
2023/11/15 05:34:21;;;;;;;2.60;1.27;;;6.40;99.60;;;;;;5014061;28;20049;-73
2023/11/15 05:36:47;;;;;;;1.88;0.65;;;6.40;99.60;;;;;;5005455;28;20026;-74
2023/11/15 05:39:12;;;;;;;1.25;0.80;;;6.40;99.60;;;;;;5005630;28;20034;-73
2023/11/15 05:41:38;;;;;;;2.15;0.95;;;6.40;99.60;;;;;;5002502;28;20030;-73
2023/11/15 05:44:03;;;;;;;1.17;0.88;;;6.40;99.60;;;;;;5002901;28;20038;-74
2023/11/15 05:46:29;;;;;;;1.88;0.82;;;6.40;99.60;;;;;;5006063;28;20037;-73
2023/11/15 05:48:54;;;;;;;2.58;1.25;;;6.40;99.60;;;;;;5007809;28;20030;-73
2023/11/15 05:51:21;;;;;;;2.50;0.93;;;6.40;99.50;;;;;;4997828;28;20578;-73
2023/11/15 05:53:46;;;;;;;2.38;1.08;;;6.30;99.50;;;;;;5001609;28;20567;-74
2023/11/15 05:56:12;;;;;;;2.83;1.20;;;6.30;99.50;;;;;;5007023;28;20037;-74
2023/11/15 05:58:37;;;;;;;2.10;1.00;;;6.30;99.60;;;;;;5005843;28;20049;-73
2023/11/15 06:01:03;;;;;;;1.50;0.93;;;6.20;99.50;;;;;;5001923;28;20038;-73
2023/11/15 06:03:29;;;;;;;2.45;1.30;;;6.20;99.60;;;;;;5008069;28;20100;-73
2023/11/15 06:05:54;;;;;;;2.53;0.95;;;6.30;99.70;;;;;;5009264;28;20087;-73
2023/11/15 06:08:20;;;;;;;2.35;0.98;;;6.20;99.60;;;;;;5005952;28;20126;-74
2023/11/15 06:10:47;;;;;;;1.83;0.85;;;6.20;99.70;;;;;;5004582;28;20038;-73
2023/11/15 06:13:15;;;;;;;2.92;1.10;;;6.20;99.70;;;;;;5008588;28;20503;-73
2023/11/15 06:15:43;;;;;;;2.38;1.15;;;6.10;99.70;;;;;;5003107;28;20487;-73
2023/11/15 06:18:10;;;;;;;2.22;1.10;;;6.10;99.70;;;;;;5004077;28;20037;-73
2023/11/15 06:20:38;;;;;;;1.98;0.95;;;6.20;99.80;;;;;;5008078;28;20024;-73
2023/11/15 06:23:04;;;;;;;1.27;0.73;;;6.10;99.80;;;;;;5007108;28;20525;-73
2023/11/15 06:25:30;;;;;;;2.28;1.25;;;6.10;99.70;;;;;;5005173;28;20073;-73
2023/11/15 06:27:55;;;;;;;1.30;0.90;;;6.10;99.80;;;;;;5001218;28;20074;-74
2023/11/15 06:30:21;;;;;;;3.17;1.27;;;6.10;99.80;;;;;;4990436;28;20030;-73
2023/11/15 06:32:47;;;;;;;2.25;0.90;;;6.00;99.70;;;;;;4994674;28;20058;-73
2023/11/15 06:35:18;;;;;;;1.50;0.93;;;6.00;99.70;;;;;;5001074;28;20034;-73
2023/11/15 06:37:48;;;;;;;2.05;1.10;;;5.90;99.80;;;;;;5007718;28;20079;-74
2023/11/15 06:40:15;;;;;;;1.95;1.08;;;5.90;99.70;;;;;;5004957;28;20238;-74
2023/11/15 06:42:41;;;;;;;2.03;0.85;;;5.80;99.80;;;;;;5001578;28;20030;-73
2023/11/15 06:45:08;;;;;;;1.50;1.05;;;5.90;99.90;;;;;;5002133;28;20388;-73
2023/11/15 06:47:35;;;;;;;1.33;0.80;;;5.90;99.90;;;;;;5002393;28;22439;-73
2023/11/15 06:50:02;;;;;;;8.02;1.33;;;6.00;99.90;;;;;;5003619;28;20466;-73
2023/11/15 06:52:28;;;;;;;1.55;0.90;;;6.00;99.90;;;;;;4993689;28;20048;-75
2023/11/15 06:54:53;;;;;;;2.88;1.05;;;6.00;99.90;;;;;;4997151;28;20042;-74
2023/11/15 06:57:19;;;;;;;2.28;1.13;;;6.00;99.90;;;;;;5004277;28;20054;-74
2023/11/15 06:59:45;;;;;;;1.50;0.80;;;6.10;99.90;;;;;;5010438;28;20038;-74
2023/11/15 07:02:11;;;;;;;2.60;0.93;;;6.10;99.90;;;;;;5004053;28;20102;-74
2023/11/15 07:04:37;;;;;;;2.42;1.17;;;6.10;99.90;;;;;;5003924;28;20046;-74
2023/11/15 07:07:03;;;;;;;1.08;0.88;;;6.10;99.90;;;;;;5008685;28;20064;-74
2023/11/15 07:09:28;;;;;;;1.80;1.00;;;6.10;99.90;;;;;;5004064;28;20030;-73
2023/11/15 07:11:54;;;;;;;1.40;0.68;;;6.10;99.90;;;;;;5003831;28;20382;-74
2023/11/15 07:14:20;;;;;;;1.42;0.80;;;6.00;99.90;;;;;;5003432;28;20458;-75
2023/11/15 07:16:47;;;;;;;2.35;1.13;;;6.10;99.90;;;;;;5001513;28;20494;-74
2023/11/15 07:19:13;;;;;;;3.35;1.20;;;6.00;99.90;;;;;;5005344;28;20466;-73
2023/11/15 07:21:39;;;;;;;3.15;1.17;;;6.10;99.90;;;;;;5003689;28;20054;-73
2023/11/15 07:24:05;;;;;;;3.60;1.65;;;6.10;99.90;;;;;;5004559;28;20109;-74
2023/11/15 07:26:35;;;;;;;2.33;1.27;;;6.10;99.90;;;;;;5000229;28;20061;-73
2023/11/15 07:29:07;;;;;;;2.13;1.10;;;6.10;99.90;;;;;;5000052;28;20034;-73
2023/11/15 07:31:34;;;;;;;2.28;1.15;;;6.20;99.90;;;;;;5020256;28;20378;-73
2023/11/15 07:34:00;;;;;;;1.60;0.98;;;6.20;99.90;;;;;;5009173;28;20040;-72
2023/11/15 07:36:29;;;;;;;1.77;0.93;;;6.30;99.90;;;;;;5006873;28;20456;-74
2023/11/15 07:38:55;;;;;;;1.65;1.00;;;6.30;99.90;;;;;;5004732;28;20332;-74
2023/11/15 07:41:21;;;;;;;2.58;1.15;;;6.30;99.90;;;;;;5010150;28;20034;-75
2023/11/15 07:43:46;;;;;;;2.92;1.20;;;6.30;99.90;;;;;;5008112;28;20403;-78
2023/11/15 07:46:13;;;;;;;1.80;0.95;;;6.20;99.90;;;;;;5007985;28;20091;-73
2023/11/15 07:48:40;;;;;;;1.92;1.15;;;6.10;99.90;;;;;;5007787;28;20030;-78
2023/11/15 07:51:07;;;;;;;1.67;0.82;;;6.10;99.90;;;;;;5003251;28;20087;-73
2023/11/15 07:53:32;;;;;;;2.00;1.15;;;6.10;99.90;;;;;;5006814;28;20156;-73
2023/11/15 07:55:58;;;;;;;2.30;1.00;;;6.10;99.90;;;;;;5011272;28;20494;-72
2023/11/15 07:58:23;;;;;;;1.67;0.80;;;6.10;99.90;;;;;;5008142;28;20035;-72
2023/11/15 08:00:49;;;;;;;1.25;0.77;;;6.20;99.90;;;;;;5004689;28;20064;-72
2023/11/15 08:03:15;;;;;;;1.52;0.82;;;6.30;99.90;;;;;;5010493;28;20475;-72
2023/11/15 08:05:41;;;;;;;1.65;0.80;;;6.30;99.90;;;;;;5008706;28;20030;-73
2023/11/15 08:08:08;;;;;;;1.90;0.60;;;6.40;99.90;;;;;;5009042;28;20045;-72
2023/11/15 08:10:37;;;;;;;2.42;1.20;;;6.40;99.90;;;;;;5005068;28;20031;-73
2023/11/15 08:13:04;;;;;;;2.05;0.82;;;6.50;99.90;;;;;;5008212;28;20395;-73
2023/11/15 08:15:31;;;;;;;3.28;0.95;;;6.50;99.90;;;;;;5009130;28;20035;-73
2023/11/15 08:17:56;;;;;;;2.47;0.88;;;6.50;99.90;;;;;;5007815;28;20045;-72
2023/11/15 08:20:22;;;;;;;1.20;0.70;;;6.50;99.90;;;;;;5005651;28;20463;-72
2023/11/15 08:22:47;;;;;;;2.50;1.02;;;6.40;99.90;;;;;;5008841;28;20026;-72
2023/11/15 08:25:21;;;;;;;1.50;1.00;;;6.30;99.90;;;;;;5004879;28;20038;-72
2023/11/15 08:27:46;;;;;;;2.05;1.02;;;6.30;99.90;;;;;;5005691;28;20670;-72
2023/11/15 08:30:17;;;;;;;1.67;1.10;;;6.30;99.90;;;;;;5005287;28;20030;-72
2023/11/15 08:32:47;;;;;;;1.65;1.05;;;6.30;99.90;;;;;;5005696;28;20164;-72
2023/11/15 08:35:17;;;;;;;1.98;0.80;;;6.30;99.90;;;;;;5003315;28;20034;-72
2023/11/15 08:37:43;;;;;;;2.70;1.35;;;6.30;99.90;;;;;;5006894;28;20038;-74
2023/11/15 08:40:11;;;;;;;3.28;1.33;;;6.40;99.90;;;;;;5005084;28;20031;-73
2023/11/15 08:42:38;;;;;;;2.92;1.33;;;6.50;99.90;;;;;;5011070;28;20046;-74
2023/11/15 08:45:06;;;;;;;3.13;1.45;;;6.50;99.90;;;;;;5005184;28;21207;-74
2023/11/15 08:47:33;;;;;;;3.15;1.17;;;6.50;99.90;;;;;;5010642;28;20105;-74
2023/11/15 08:49:59;;;;;;;2.60;1.10;;;6.60;99.90;;;;;;5002841;28;20036;-74
2023/11/15 08:52:24;;;;;;;2.40;1.20;;;6.60;99.90;;;;;;4991236;28;20116;-73
2023/11/15 08:54:50;;;;;;;1.27;0.77;;;6.60;99.90;;;;;;5010204;28;20041;-74
2023/11/15 08:57:15;;;;;;;2.30;1.10;;;6.70;99.80;;;;;;5002647;28;20037;-73
2023/11/15 08:59:45;;;;;;;1.67;0.85;;;6.80;99.80;;;;;;5009632;28;20074;-73
2023/11/15 09:02:11;;;;;;;2.38;1.00;;;6.90;99.70;;;;;;5003259;28;20065;-71
2023/11/15 09:04:40;;;;;;;0.82;0.60;;;7.00;99.50;;;;;;5006907;28;20053;-73
2023/11/15 09:07:05;;;;;;;1.23;0.70;;;7.10;99.30;;;;;;5000098;28;20375;-72
2023/11/15 09:09:38;;;;;;;2.88;0.93;;;7.10;99.10;;;;;;5002540;28;20043;-72
2023/11/15 09:12:06;;;;;;;1.83;0.70;;;7.10;98.90;;;;;;5007858;28;20087;-72
2023/11/15 09:14:33;;;;;;;2.53;1.00;;;7.20;98.80;;;;;;5002666;28;20026;-72
2023/11/15 09:17:00;;;;;;;1.75;0.98;;;7.30;98.80;;;;;;5000494;28;20074;-72
2023/11/15 09:19:27;;;;;;;1.45;0.80;;;7.30;98.50;;;;;;5007757;28;20112;-72
2023/11/15 09:21:53;;;;;;;1.00;0.80;;;7.30;98.30;;;;;;5009797;28;20042;-72
2023/11/15 09:24:21;;;;;;;2.00;1.02;;;7.20;98.10;;;;;;5008885;28;20036;-72
2023/11/15 09:26:48;;;;;;;1.33;0.98;;;7.30;98.30;;;;;;5002690;28;20054;-72
2023/11/15 09:29:13;;;;;;;2.75;1.15;;;7.30;98.20;;;;;;5008415;28;20030;-72
2023/11/15 09:31:39;;;;;;;2.15;0.82;;;7.30;98.20;;;;;;5011551;28;20045;-72
2023/11/15 09:34:05;;;;;;;1.08;0.70;;;7.30;98.10;;;;;;5004032;28;20123;-74
2023/11/15 09:36:31;;;;;;;2.53;1.08;;;7.20;98.20;;;;;;5007583;28;20030;-72
2023/11/15 09:38:57;;;;;;;1.20;0.80;;;7.20;97.90;;;;;;5012108;28;20439;-72
2023/11/15 09:41:24;;;;;;;1.88;1.05;;;7.20;97.80;;;;;;5007388;28;20037;-72
2023/11/15 09:43:55;;;;;;;2.22;0.82;;;7.30;97.70;;;;;;4997984;28;20161;-72
2023/11/15 09:46:21;;;;;;;1.48;0.88;;;7.30;97.30;;;;;;5005811;28;20113;-72
2023/11/15 09:48:50;;;;;;;3.10;1.48;;;7.30;97.40;;;;;;5008310;28;20398;-72
2023/11/15 09:51:20;;;;;;;2.83;1.10;;;7.50;97.70;;;;;;5010271;28;20038;-72
2023/11/15 09:53:49;;;;;;;2.58;1.00;;;7.80;97.20;;;;;;4995812;28;20132;-74
2023/11/15 09:56:15;;;;;;;1.38;1.00;;;7.90;96.90;;;;;;5007027;28;20108;-75
2023/11/15 09:58:41;;;;;;;1.20;0.90;;;8.10;96.70;;;;;;5004592;28;20124;-72
2023/11/15 10:01:08;;;;;;;1.98;1.20;;;8.10;95.70;;;;;;5007509;28;20116;-74
2023/11/15 10:03:42;;;;;;;1.00;0.65;;;8.20;95.30;;;;;;5005874;28;20478;-72
2023/11/15 10:06:08;;;;;;;2.13;1.02;;;8.30;95.20;;;;;;4999373;28;20049;-74
2023/11/15 10:08:49;;;;;;;0.90;0.63;;;8.40;94.30;;;;;;5009912;28;20040;-82
2023/11/15 10:11:15;;;;;;;1.90;0.88;;;8.50;93.80;;;;;;5009014;28;20025;-75
2023/11/15 10:13:41;;;;;;;0.88;0.57;;;8.50;93.80;;;;;;5003120;28;20113;-73
2023/11/15 10:16:30;;;;;;;1.13;0.50;;;8.60;93.60;;;;;;5006393;28;20503;-72
2023/11/15 10:18:56;;;;;;;0.82;0.55;;;8.60;92.70;;;;;;5009119;28;20037;-73
2023/11/15 10:21:22;;;;;;;0.50;0.40;;;8.70;92.30;;;;;;5009226;28;20026;-71
2023/11/15 10:23:51;;;;;;;1.00;0.63;;;8.70;91.90;;;;;;5004319;28;20068;-72
2023/11/15 10:26:16;;;;;;;1.10;0.55;;;8.90;91.80;;;;;;5005201;28;20049;-72
2023/11/15 10:28:44;;;;;;;1.25;0.55;;;8.80;91.00;;;;;;5002114;28;20585;-75
2023/11/15 10:31:14;;;;;;;1.30;0.50;;;8.90;91.50;;;;;;5005532;28;20033;-71
2023/11/15 10:33:49;;;;;;;1.48;0.73;;;8.90;91.40;;;;;;5005240;28;20021;-72
2023/11/15 10:36:22;;;;;;;1.25;0.40;;;8.60;90.30;;;;;;5008392;28;20036;-72
2023/11/15 10:38:58;;;;;;;0.55;0.38;;;8.60;90.90;;;;;;5003874;28;20366;-72
2023/11/15 10:41:25;;;;;;;1.58;0.50;;;8.50;91.60;;;;;;5008750;28;20025;-72
2023/11/15 10:43:52;;;;;;;0.60;0.35;;;8.40;91.10;;;;;;5004715;28;20108;-72
2023/11/15 10:46:29;;;;;;;0.75;0.50;;;8.50;91.50;;;;;;5006775;28;20071;-73
2023/11/15 10:48:58;;;;;;;1.13;0.50;;;8.70;91.80;;;;;;5002424;28;20033;-72
2023/11/15 10:51:41;;;;;;;0.93;0.40;;;8.80;91.20;;;;;;5007400;28;20505;-72
2023/11/15 10:54:13;;;;;;;0.60;0.30;;;8.80;89.80;;;;;;4992656;28;20049;-74
2023/11/15 10:56:40;;;;;;;0.93;0.32;;;8.70;88.00;;;;;;5008628;28;21056;-73
2023/11/15 10:59:06;;;;;;;0.43;0.20;;;8.60;89.40;;;;;;5001851;28;20451;-72
2023/11/15 11:01:34;;;;;;;1.17;0.40;;;8.40;90.10;;;;;;5003972;28;20061;-72
2023/11/15 11:04:07;;;;;;;0.20;0.20;;;8.30;90.10;;;;;;5006453;28;20505;-72
2023/11/15 11:06:47;;;;;;;0.88;0.55;;;8.30;90.50;;;;;;5002018;28;20041;-72
2023/11/15 11:09:36;;;;;;;0.65;0.40;;;8.20;90.90;;;;;;5007371;28;20356;-73
2023/11/15 11:12:12;;;;;;;0.50;0.38;;;8.60;90.70;;;;;;5007725;28;20099;-72
2023/11/15 11:14:38;;;;;;;0.75;0.50;;;8.80;89.90;;;;;;5004454;28;20463;-73
2023/11/15 11:17:29;;;;;;;1.00;0.40;;;9.20;89.50;;;;;;5006034;28;20038;-73
2023/11/15 11:19:54;;;;;;;0.82;0.40;;;9.60;87.80;;;;;;5004214;28;20116;-73
2023/11/15 11:22:22;;;;;;;1.55;0.30;;;9.70;87.50;;;;;;5005268;28;22323;-73
2023/11/15 11:25:10;;;;;;;0.98;0.30;;;9.90;85.90;;;;;;5007407;28;20022;-73
2023/11/15 11:27:37;;;;;;;0.30;0.20;;;10.00;85.50;;;;;;5007532;28;20053;-73
2023/11/15 11:30:06;;;;;;;0.28;0.20;;;10.30;87.00;;;;;;5001561;28;20025;-74
2023/11/15 11:32:31;;;;;;;0.45;0.40;;;10.30;84.70;;;;;;5004780;28;20022;-74
2023/11/15 11:35:13;;;;;;;0.68;0.28;;;10.10;85.50;;;;;;5013512;28;20034;-74
2023/11/15 11:37:59;;;;;;;0.52;0.40;;;9.90;84.90;;;;;;5005972;28;20032;-74
2023/11/15 11:40:28;;;;;;;0.40;0.20;;;9.60;85.40;;;;;;5003670;28;20112;-73
2023/11/15 11:43:11;;;;;;;2.28;0.40;;;9.30;86.60;;;;;;5009254;28;20040;-73
2023/11/15 11:45:37;;;;;;;0.40;0.22;;;9.10;86.70;;;;;;5006436;28;20092;-73
2023/11/15 11:48:03;;;;;;;0.63;0.30;;;9.00;87.30;;;;;;5008125;28;20038;-73
2023/11/15 11:50:28;;;;;;;0.65;0.30;;;8.80;87.70;;;;;;5005971;28;20092;-74
2023/11/15 11:52:55;;;;;;;1.13;0.43;;;8.90;88.40;;;;;;5000505;28;20046;-74
2023/11/15 11:55:22;;;;;;;0.20;0.20;;;9.00;87.80;;;;;;5001410;28;20030;-74
2023/11/15 11:57:49;;;;;;;0.20;0.20;;;9.00;87.00;;;;;;5006550;28;20087;-74
2023/11/15 12:00:18;;;;;;;0.50;0.22;;;9.00;88.20;;;;;;4997861;28;20026;-73
2023/11/15 12:02:49;;;;;;;0.30;0.30;;;8.90;88.10;;;;;;5006315;28;20041;-74
2023/11/15 12:05:20;;;;;;;1.10;0.30;;;9.10;87.50;;;;;;5005863;28;20065;-73
2023/11/15 12:07:47;;;;;;;0.20;0.20;;;9.30;86.90;;;;;;5001783;28;20041;-73
2023/11/15 12:10:14;;;;;;;0.30;0.30;;;9.70;86.00;;;;;;5003399;28;20025;-74
2023/11/15 12:12:41;;;;;;;0.22;0.15;;;9.70;86.70;;;;;;5005790;28;20033;-74
2023/11/15 12:15:13;;;;;;;0.55;0.30;;;9.50;85.70;;;;;;5006658;28;20030;-74
2023/11/15 12:17:39;;;;;;;0.88;0.15;;;9.70;85.50;;;;;;5008627;28;20053;-74
2023/11/15 12:20:10;;;;;;;0.22;0.10;;;10.10;85.30;;;;;;5008898;28;20053;-73
2023/11/15 12:22:37;;;;;;;1.35;0.40;;;10.20;83.50;;;;;;5001879;28;20565;-74
2023/11/15 12:25:09;;;;;;;0.55;0.20;;;10.00;83.80;;;;;;5003809;28;20045;-73
2023/11/15 12:27:37;;;;;;;0.63;0.30;;;10.10;84.70;;;;;;5010243;28;20057;-74
2023/11/15 12:30:03;;;;;;;0.20;0.20;;;10.00;85.20;;;;;;5006761;28;20475;-73
2023/11/15 12:32:30;;;;;;;0.20;0.10;;;9.80;85.00;;;;;;5007396;28;20114;-73
2023/11/15 12:34:56;;;;;;;0.68;0.40;;;9.80;86.50;;;;;;5005681;28;20088;-74
2023/11/15 12:37:22;;;;;;;0.43;0.20;;;9.80;87.00;;;;;;5010483;28;20497;-74
2023/11/15 12:39:48;;;;;;;0.30;0.20;;;9.80;85.50;;;;;;5000415;28;20030;-72
2023/11/15 12:42:24;;;;;;;0.50;0.50;;;9.80;86.00;;;;;;5001463;28;20117;-73
2023/11/15 12:44:50;;;;;;;1.25;0.30;;;9.80;86.40;;;;;;5006688;28;20038;-74
2023/11/15 12:47:16;;;;;;;0.20;0.20;;;10.00;87.40;;;;;;5001562;28;20655;-73
2023/11/15 12:49:42;;;;;;;0.10;0.10;;;9.90;87.60;;;;;;5004329;28;20033;-73
2023/11/15 12:52:07;;;;;;;0.30;0.13;;;9.80;86.20;;;;;;5002765;28;20026;-73
2023/11/15 12:54:35;;;;;;;0.38;0.10;;;9.80;87.50;;;;;;4996084;28;20133;-73
2023/11/15 12:57:14;;;;;;;0.15;0.15;;;9.80;87.20;;;;;;5004381;28;20033;-78